Time;durP1;ratioP1;P1;durP2;ratioP2;P2;SDS_P1;SDS_P2;PMS_P1;PMS_P2;Temp;Humidity;BMP_temperature;BMP_pressure;BME280_temperature;BME280_humidity;BME280_pressure;Samples;Min_cycle;Max_cycle;Signal;HPM_P1;HPM_P2
2022/11/02 00:01:29;;;;;;;8.95;8.05;;;22.50;99.90;;;;;;6217510;28;89087;-67
2022/11/02 00:04:31;;;;;;;9.60;8.10;;;22.50;99.90;;;;;;6233290;28;88072;-67
2022/11/02 00:07:33;;;;;;;9.32;7.70;;;22.50;99.90;;;;;;6207675;28;89252;-67
2022/11/02 00:10:35;;;;;;;8.15;7.32;;;22.50;99.90;;;;;;6207757;28;89186;-66
2022/11/02 00:13:39;;;;;;;9.30;8.18;;;22.50;99.90;;;;;;6225204;28;89213;-66
2022/11/02 00:16:41;;;;;;;9.57;8.05;;;22.40;99.90;;;;;;6220859;28;89266;-66
2022/11/02 00:19:43;;;;;;;8.52;7.60;;;22.50;99.90;;;;;;6213500;28;88722;-67
2022/11/02 00:22:47;;;;;;;8.65;7.72;;;22.50;99.90;;;;;;6222946;28;89112;-66
2022/11/02 00:25:52;;;;;;;9.48;7.80;;;22.40;99.90;;;;;;6223395;28;89169;-67
2022/11/02 00:28:55;;;;;;;8.02;7.22;;;22.40;99.90;;;;;;6216070;28;90148;-66
2022/11/02 00:31:58;;;;;;;8.60;7.70;;;22.50;99.90;;;;;;6219696;28;89278;-67
2022/11/02 00:35:00;;;;;;;9.13;7.63;;;22.40;99.90;;;;;;6217421;28;88026;-66
2022/11/02 00:38:02;;;;;;;8.75;7.50;;;22.40;99.90;;;;;;6229935;28;89594;-67
2022/11/02 00:41:05;;;;;;;8.55;7.57;;;22.40;99.90;;;;;;6229362;28;90742;-66
2022/11/02 00:44:08;;;;;;;8.30;7.40;;;22.40;99.90;;;;;;6217053;28;89139;-67
2022/11/02 00:47:11;;;;;;;8.68;7.45;;;22.40;99.90;;;;;;6219920;28;89324;-66
2022/11/02 00:50:13;;;;;;;8.75;7.57;;;22.50;99.90;;;;;;6219739;28;88333;-67
2022/11/02 00:53:15;;;;;;;8.82;7.25;;;22.40;99.90;;;;;;6228669;28;89346;-67
2022/11/02 00:56:17;;;;;;;8.88;7.40;;;22.40;99.90;;;;;;6222770;28;89093;-66
2022/11/02 00:59:21;;;;;;;8.00;7.20;;;22.40;99.90;;;;;;6218243;28;90252;-67
2022/11/02 01:02:23;;;;;;;8.23;7.25;;;22.40;99.90;;;;;;6224310;28;88010;-66
2022/11/02 01:05:25;;;;;;;7.78;6.97;;;22.40;99.90;;;;;;6223800;28;89313;-67
2022/11/02 01:08:27;;;;;;;7.93;7.13;;;22.40;99.90;;;;;;6215209;28;89054;-66
2022/11/02 01:11:29;;;;;;;8.35;7.55;;;22.40;99.90;;;;;;6230246;28;89332;-66
2022/11/02 01:14:33;;;;;;;8.10;7.30;;;22.40;99.90;;;;;;6221378;28;89065;-66
2022/11/02 01:17:35;;;;;;;8.15;7.10;;;22.40;99.90;;;;;;6224005;28;89260;-66
2022/11/02 01:20:37;;;;;;;7.90;6.95;;;22.40;99.90;;;;;;6228627;28;88451;-67
2022/11/02 01:23:39;;;;;;;7.68;6.88;;;22.40;99.90;;;;;;6216691;28;89243;-66
2022/11/02 01:26:41;;;;;;;8.63;7.35;;;22.30;99.90;;;;;;6230504;28;90015;-66
2022/11/02 01:29:44;;;;;;;7.50;6.63;;;22.40;99.90;;;;;;6214686;28;90112;-66
2022/11/02 01:32:46;;;;;;;7.65;6.85;;;22.40;99.90;;;;;;6230442;28;89124;-66
2022/11/02 01:35:48;;;;;;;7.55;6.80;;;22.30;99.90;;;;;;6219675;28;89101;-66
2022/11/02 01:38:50;;;;;;;7.93;6.65;;;22.30;99.90;;;;;;6219092;28;89272;-66
2022/11/02 01:41:54;;;;;;;7.97;7.18;;;22.40;99.90;;;;;;6227527;28;89308;-66
2022/11/02 01:44:57;;;;;;;7.50;6.65;;;22.30;99.90;;;;;;6228387;28;89092;-66
2022/11/02 01:47:59;;;;;;;7.57;6.88;;;22.30;99.90;;;;;;6210115;28;89250;-66
2022/11/02 01:51:04;;;;;;;7.15;6.45;;;22.30;99.90;;;;;;6230680;28;88762;-66
2022/11/02 01:54:10;;;;;;;7.18;6.47;;;22.30;99.90;;;;;;6227786;28;89189;-66
2022/11/02 01:57:17;;;;;;;7.97;7.18;;;22.30;99.90;;;;;;6222858;28;89245;-66
2022/11/02 02:00:21;;;;;;;7.20;6.50;;;22.30;99.90;;;;;;6212064;28;91142;-66
2022/11/02 02:03:24;;;;;;;10.55;7.95;;;22.30;99.90;;;;;;6230571;28;89942;-66
2022/11/02 02:06:26;;;;;;;8.25;6.88;;;22.30;99.90;;;;;;6230544;28;89008;-66
2022/11/02 02:09:29;;;;;;;8.07;6.93;;;22.30;99.90;;;;;;6233807;28;89173;-66
2022/11/02 02:12:34;;;;;;;9.50;7.30;;;22.30;99.90;;;;;;6219767;28;89291;-66
2022/11/02 02:15:43;;;;;;;7.90;7.10;;;22.30;99.90;;;;;;6220700;28;89338;-66
2022/11/02 02:18:53;;;;;;;7.93;7.13;;;22.30;99.90;;;;;;6223914;28;89257;-66
2022/11/02 02:22:15;;;;;;;8.07;7.28;;;22.30;99.90;;;;;;6222814;28;88417;-66
2022/11/02 02:25:47;;;;;;;9.07;7.63;;;22.30;99.90;;;;;;6231558;28;89332;-66
2022/11/02 02:28:57;;;;;;;7.85;7.05;;;22.30;99.90;;;;;;6223791;28;88061;-66
2022/11/02 02:32:06;;;;;;;7.90;7.20;;;22.30;99.90;;;;;;6218119;28;90143;-66
2022/11/02 02:35:16;;;;;;;8.18;7.38;;;22.30;99.90;;;;;;6233415;28;89190;-66
2022/11/02 02:38:28;;;;;;;8.00;7.20;;;22.30;99.90;;;;;;6233068;28;89546;-66
2022/11/02 02:41:38;;;;;;;8.20;7.35;;;22.30;99.90;;;;;;6232394;28;89268;-66
2022/11/02 02:44:46;;;;;;;8.63;7.82;;;22.30;99.90;;;;;;6233299;28;88042;-66
2022/11/02 02:47:54;;;;;;;8.18;7.38;;;22.30;99.90;;;;;;6219713;28;89363;-66
2022/11/02 02:51:01;;;;;;;8.48;7.68;;;22.20;99.90;;;;;;6232729;28;89257;-66
2022/11/02 02:54:07;;;;;;;8.88;7.80;;;22.30;99.90;;;;;;6232732;28;88457;-66
2022/11/02 02:57:12;;;;;;;8.10;7.30;;;22.30;99.90;;;;;;6220501;28;89094;-66
2022/11/02 03:00:18;;;;;;;8.50;7.70;;;22.30;99.90;;;;;;6229516;28;89281;-66
2022/11/02 03:03:22;;;;;;;9.93;8.43;;;22.20;99.90;;;;;;6223233;28;91280;-66
2022/11/02 03:06:28;;;;;;;9.15;7.88;;;22.20;99.90;;;;;;6229393;28;89116;-66
2022/11/02 03:09:37;;;;;;;8.43;7.57;;;22.20;99.90;;;;;;6226414;28;88068;-66
2022/11/02 03:12:45;;;;;;;9.20;7.93;;;22.20;99.90;;;;;;6213012;28;89070;-66
2022/11/02 03:15:54;;;;;;;8.80;7.90;;;22.20;99.90;;;;;;6225319;28;89099;-66
2022/11/02 03:19:07;;;;;;;9.25;8.30;;;22.20;99.90;;;;;;6231293;28;88010;-66
2022/11/02 03:22:16;;;;;;;8.55;7.75;;;22.20;99.90;;;;;;6222297;28;88068;-66
2022/11/02 03:25:23;;;;;;;9.23;8.32;;;22.20;99.90;;;;;;6233319;28;88309;-67
2022/11/02 03:28:34;;;;;;;8.90;8.00;;;22.20;99.90;;;;;;6223523;28;88128;-66
2022/11/02 03:31:42;;;;;;;9.30;8.40;;;22.20;99.90;;;;;;6216326;28;89228;-66
2022/11/02 03:34:47;;;;;;;9.50;8.55;;;22.20;99.90;;;;;;6220657;28;90097;-67
2022/11/02 03:37:56;;;;;;;10.00;8.80;;;22.20;99.90;;;;;;6226331;28;88827;-67
2022/11/02 03:41:00;;;;;;;9.43;8.40;;;22.20;99.90;;;;;;6231189;28;89033;-66
2022/11/02 03:44:06;;;;;;;9.48;8.48;;;22.20;99.90;;;;;;6221341;28;89186;-67
2022/11/02 03:47:13;;;;;;;9.85;8.85;;;22.20;99.90;;;;;;6223465;28;89206;-67
2022/11/02 03:50:20;;;;;;;9.05;8.15;;;22.10;99.90;;;;;;6229848;28;89321;-67
2022/11/02 03:53:29;;;;;;;9.27;8.27;;;22.20;99.90;;;;;;6208591;28;88949;-67
2022/11/02 03:56:35;;;;;;;9.52;8.52;;;22.20;99.90;;;;;;6230695;28;88774;-67
2022/11/02 03:59:37;;;;;;;9.20;8.30;;;22.20;99.90;;;;;;6223928;28;89474;-67
2022/11/02 04:02:43;;;;;;;9.00;8.20;;;22.20;99.90;;;;;;6216840;28;88796;-66
2022/11/02 04:05:45;;;;;;;9.02;8.13;;;22.20;99.90;;;;;;6230609;28;90256;-67
2022/11/02 04:08:49;;;;;;;10.00;8.98;;;22.20;99.90;;;;;;6217824;28;89164;-66
2022/11/02 04:15:10;;;;;;;9.48;8.57;;;22.20;99.90;;;;;;6224757;28;87311;-66
2022/11/02 04:21:33;;;;;;;9.30;8.40;;;22.20;99.90;;;;;;6231162;28;87258;-67
2022/11/02 04:27:55;;;;;;;9.25;8.35;;;22.10;99.90;;;;;;6232743;28;87026;-67
2022/11/02 04:30:59;;;;;;;9.40;8.50;;;22.10;99.90;;;;;;6232107;28;89202;-66
2022/11/02 04:34:03;;;;;;;9.38;8.38;;;22.10;99.90;;;;;;6229676;28;88094;-67
2022/11/02 04:38:39;;;;;;;9.57;8.52;;;22.10;99.90;;;;;;6219723;28;88923;-66
2022/11/02 04:40:27;;;;;;;9.43;8.48;;;22.10;99.90;;;;;;6218732;28;88185;-67
2022/11/02 04:43:29;;;;;;;9.43;8.45;;;22.10;99.90;;;;;;6230778;28;89287;-66
2022/11/02 04:46:33;;;;;;;9.45;8.55;;;22.10;99.90;;;;;;6230513;28;88044;-66
2022/11/02 04:49:37;;;;;;;9.27;8.38;;;22.20;99.90;;;;;;6228865;28;89420;-67
2022/11/02 04:52:39;;;;;;;9.95;8.93;;;22.20;99.90;;;;;;6228373;28;89358;-67
2022/11/02 04:55:41;;;;;;;9.30;8.43;;;22.20;99.90;;;;;;6218858;28;89423;-67
2022/11/02 04:58:43;;;;;;;10.27;9.27;;;22.20;99.90;;;;;;6231474;28;88348;-67
2022/11/02 05:01:45;;;;;;;9.70;8.80;;;22.10;99.90;;;;;;6229783;28;87940;-66
2022/11/02 05:04:48;;;;;;;10.27;9.27;;;22.10;99.90;;;;;;6215703;28;89115;-66
2022/11/02 05:07:50;;;;;;;9.70;8.80;;;22.20;99.90;;;;;;6219898;28;90354;-67
2022/11/02 05:10:55;;;;;;;10.15;9.25;;;22.20;99.90;;;;;;6230780;28;89274;-67
2022/11/02 05:13:57;;;;;;;10.43;9.32;;;22.20;99.90;;;;;;6213709;28;88117;-67
2022/11/02 05:16:59;;;;;;;10.20;9.20;;;22.20;99.90;;;;;;6226226;28;88130;-67
2022/11/02 05:20:03;;;;;;;10.40;9.40;;;22.20;99.90;;;;;;6231442;28;89066;-67
2022/11/02 05:23:06;;;;;;;11.43;10.00;;;22.20;99.90;;;;;;6210586;28;89275;-67
2022/11/02 05:26:10;;;;;;;10.48;9.48;;;22.30;99.90;;;;;;6204477;28;89760;-67
2022/11/02 05:29:12;;;;;;;10.25;9.27;;;22.20;99.90;;;;;;6206777;28;88461;-67
2022/11/02 05:32:14;;;;;;;10.65;9.65;;;22.20;99.90;;;;;;6211141;28;89450;-67
2022/11/02 05:35:18;;;;;;;10.45;9.45;;;22.20;99.90;;;;;;6211935;28;89236;-67
2022/11/02 05:38:20;;;;;;;10.65;9.65;;;22.30;99.90;;;;;;6222493;28;89000;-66
2022/11/02 05:41:22;;;;;;;10.63;9.52;;;22.30;99.90;;;;;;6230023;28;89501;-67
2022/11/02 05:44:24;;;;;;;10.50;9.50;;;22.20;99.90;;;;;;6229215;28;87662;-67
2022/11/02 05:47:26;;;;;;;11.15;9.98;;;22.20;99.90;;;;;;6214846;28;89201;-67
2022/11/02 05:50:30;;;;;;;10.63;9.52;;;22.30;99.90;;;;;;6221443;28;89187;-67
2022/11/02 05:53:32;;;;;;;10.70;9.60;;;22.30;99.90;;;;;;6231005;28;89263;-66
2022/11/02 05:56:35;;;;;;;12.18;10.55;;;22.20;99.90;;;;;;6216902;28;88360;-67
2022/11/02 05:59:37;;;;;;;11.23;10.23;;;22.20;99.90;;;;;;6217353;28;88445;-67
2022/11/02 06:02:39;;;;;;;10.88;9.88;;;22.20;99.90;;;;;;6216500;28;89164;-66
2022/11/02 06:05:42;;;;;;;10.98;9.88;;;22.20;99.90;;;;;;6204533;28;88132;-66
2022/11/02 06:08:44;;;;;;;10.65;9.63;;;22.20;99.90;;;;;;6218959;28;90060;-67
2022/11/02 06:11:46;;;;;;;10.70;9.70;;;22.30;99.90;;;;;;6224408;28;89271;-67
2022/11/02 06:14:48;;;;;;;11.23;10.13;;;22.20;99.90;;;;;;6216550;28;87659;-66
2022/11/02 06:17:51;;;;;;;11.23;10.13;;;22.20;99.90;;;;;;6217815;28;88713;-66
2022/11/02 06:20:57;;;;;;;11.05;9.95;;;22.30;99.90;;;;;;6225256;28;89146;-67
2022/11/02 06:23:59;;;;;;;10.90;9.90;;;22.30;99.90;;;;;;6217154;28;89539;-67
2022/11/02 06:27:01;;;;;;;10.77;9.77;;;22.20;99.90;;;;;;6216342;28;89478;-67
2022/11/02 06:30:04;;;;;;;11.80;10.60;;;22.30;99.90;;;;;;6230240;28;88624;-66
2022/11/02 06:33:06;;;;;;;11.48;10.38;;;22.30;99.90;;;;;;6228397;28;88988;-67
2022/11/02 06:36:10;;;;;;;11.52;10.43;;;22.30;99.90;;;;;;6230439;28;89224;-66
2022/11/02 06:39:12;;;;;;;10.95;9.85;;;22.30;99.90;;;;;;6218898;28;90356;-67
2022/11/02 06:42:15;;;;;;;11.88;10.75;;;22.30;99.90;;;;;;6233696;28;89070;-66
2022/11/02 06:45:17;;;;;;;11.15;10.05;;;22.30;99.90;;;;;;6231366;28;89224;-67
2022/11/02 06:48:19;;;;;;;11.73;10.57;;;22.40;99.90;;;;;;6208199;28;89151;-67
2022/11/02 06:51:22;;;;;;;10.95;9.85;;;22.40;99.90;;;;;;6232838;28;90511;-67
2022/11/02 06:54:24;;;;;;;11.43;10.32;;;22.40;99.90;;;;;;6223433;28;89274;-67
2022/11/02 06:57:26;;;;;;;10.80;9.80;;;22.30;99.90;;;;;;6229883;28;88084;-67
2022/11/02 07:00:29;;;;;;;11.10;10.10;;;22.40;99.90;;;;;;6214110;28;87959;-66
2022/11/02 07:03:31;;;;;;;10.93;9.93;;;22.30;99.90;;;;;;6207866;28;89166;-66
2022/11/02 07:06:35;;;;;;;11.40;10.40;;;22.30;99.90;;;;;;6221643;28;89149;-67
2022/11/02 07:09:37;;;;;;;10.63;9.63;;;22.40;99.90;;;;;;6209530;28;90305;-67
2022/11/02 07:12:40;;;;;;;10.80;9.80;;;22.40;99.90;;;;;;6231663;28;89236;-67
2022/11/02 07:15:42;;;;;;;11.13;10.00;;;22.30;99.90;;;;;;6229895;28;89153;-66
2022/11/02 07:18:44;;;;;;;10.88;9.82;;;22.40;99.90;;;;;;6212441;28;87990;-66
2022/11/02 07:21:47;;;;;;;10.32;9.43;;;22.40;99.90;;;;;;6208299;28;89208;-66
2022/11/02 07:24:49;;;;;;;11.30;10.20;;;22.40;99.90;;;;;;6221394;28;89431;-66
2022/11/02 07:27:51;;;;;;;10.55;9.45;;;22.40;99.90;;;;;;6224629;28;89588;-66
2022/11/02 07:30:54;;;;;;;11.40;10.27;;;22.40;99.90;;;;;;6220781;28;88761;-66
2022/11/02 07:33:56;;;;;;;10.93;9.82;;;22.40;99.90;;;;;;6230807;28;89069;-66
2022/11/02 07:36:59;;;;;;;10.45;9.45;;;22.40;99.90;;;;;;6233285;28;89178;-66
2022/11/02 07:40:02;;;;;;;10.43;9.43;;;22.40;99.90;;;;;;6232342;28;90193;-67
2022/11/02 07:43:05;;;;;;;10.60;9.60;;;22.40;99.90;;;;;;6232439;28;88825;-67
2022/11/02 07:46:07;;;;;;;10.52;9.52;;;22.40;99.90;;;;;;6231869;28;89613;-67
2022/11/02 07:49:09;;;;;;;10.13;9.15;;;22.40;99.90;;;;;;6231532;28;89157;-66
2022/11/02 07:52:12;;;;;;;10.75;9.75;;;22.40;99.90;;;;;;6232866;28;88139;-66
2022/11/02 07:55:15;;;;;;;10.55;9.55;;;22.40;99.90;;;;;;6227750;28;89220;-66
2022/11/02 07:58:17;;;;;;;10.07;9.07;;;22.40;99.90;;;;;;6224070;28;89627;-67
2022/11/02 08:01:19;;;;;;;10.70;9.70;;;22.40;99.90;;;;;;6232178;28;88648;-66
2022/11/02 08:04:21;;;;;;;10.27;9.27;;;22.50;99.90;;;;;;6232368;28;89163;-66
2022/11/02 08:07:24;;;;;;;10.35;9.40;;;22.50;99.90;;;;;;6231435;28;89140;-66
2022/11/02 08:10:27;;;;;;;10.55;9.45;;;22.40;99.90;;;;;;6219703;28;90226;-66
2022/11/02 08:13:29;;;;;;;10.25;9.25;;;22.50;99.90;;;;;;6225392;28;89350;-66
2022/11/02 08:16:31;;;;;;;10.57;9.55;;;22.50;99.90;;;;;;6230996;28;88026;-65
2022/11/02 08:19:33;;;;;;;10.10;9.20;;;22.50;99.90;;;;;;6220539;28;89088;-66
2022/11/02 08:22:39;;;;;;;9.82;8.93;;;22.50;99.90;;;;;;6219224;28;88819;-66
2022/11/02 08:25:42;;;;;;;9.98;9.07;;;22.50;99.90;;;;;;6219649;28;89146;-66
2022/11/02 08:28:44;;;;;;;9.90;9.00;;;22.40;99.90;;;;;;6207699;28;89278;-66
2022/11/02 08:31:47;;;;;;;9.80;8.90;;;22.40;99.90;;;;;;6227300;28;88596;-66
2022/11/02 08:34:49;;;;;;;10.02;9.10;;;22.50;99.90;;;;;;6218253;28;89129;-66
2022/11/02 08:37:55;;;;;;;10.02;9.02;;;22.40;99.90;;;;;;6231683;28;89131;-66
2022/11/02 08:40:57;;;;;;;9.80;8.80;;;22.50;99.90;;;;;;6220869;28;90353;-66
2022/11/02 08:43:59;;;;;;;9.93;8.93;;;22.50;99.90;;;;;;6231103;28;89186;-66
2022/11/02 08:47:01;;;;;;;9.45;8.55;;;22.50;99.90;;;;;;6231043;28;89139;-66
2022/11/02 08:50:04;;;;;;;9.40;8.50;;;22.50;99.90;;;;;;6220054;28;89208;-66
2022/11/02 08:53:07;;;;;;;9.90;8.98;;;22.50;99.90;;;;;;6231424;28;90296;-66
2022/11/02 08:56:09;;;;;;;9.10;8.23;;;22.50;99.90;;;;;;6230061;28;89179;-66
2022/11/02 08:59:11;;;;;;;9.65;8.75;;;22.50;99.90;;;;;;6230848;28;89853;-66
2022/11/02 09:02:13;;;;;;;9.20;8.40;;;22.50;99.90;;;;;;6230366;28;88348;-66
2022/11/02 09:05:15;;;;;;;9.20;8.30;;;22.50;99.90;;;;;;6216608;28;89149;-66
2022/11/02 09:08:20;;;;;;;9.70;8.75;;;22.50;99.90;;;;;;6218090;28;89121;-66
2022/11/02 09:11:22;;;;;;;9.48;8.48;;;22.50;99.90;;;;;;6229085;28;90442;-66
2022/11/02 09:14:24;;;;;;;9.25;8.35;;;22.50;99.90;;;;;;6230145;28;89413;-66
2022/11/02 09:17:26;;;;;;;8.90;8.10;;;22.50;99.90;;;;;;6231209;28;89256;-66
2022/11/02 09:20:28;;;;;;;9.05;8.25;;;22.50;99.90;;;;;;6223014;28;88154;-66
2022/11/02 09:23:33;;;;;;;8.75;7.88;;;22.50;99.90;;;;;;6215030;28;88092;-67
2022/11/02 09:26:34;;;;;;;9.00;8.20;;;22.50;99.90;;;;;;6217669;28;89245;-66
2022/11/02 09:29:36;;;;;;;9.15;8.25;;;22.50;99.90;;;;;;6226276;28;89480;-66
2022/11/02 09:32:39;;;;;;;9.50;8.60;;;22.50;99.90;;;;;;6223520;28;88422;-66
2022/11/02 09:35:43;;;;;;;9.77;8.77;;;22.50;99.90;;;;;;6217081;28;89325;-66
2022/11/02 09:38:46;;;;;;;9.65;8.70;;;22.50;99.90;;;;;;6229332;28;89241;-66
2022/11/02 09:42:01;;;;;;;8.60;7.80;;;22.50;99.90;;;;;;6218599;28;90282;-66
2022/11/02 09:45:06;;;;;;;8.50;7.70;;;22.50;99.90;;;;;;6219281;28;89266;-66
2022/11/02 09:48:15;;;;;;;8.70;7.90;;;22.50;99.90;;;;;;6230563;28;89153;-66
2022/11/02 09:51:21;;;;;;;8.85;8.02;;;22.50;99.90;;;;;;6231047;28;89222;-66
2022/11/02 09:54:30;;;;;;;8.55;7.75;;;22.60;99.90;;;;;;6216865;28;89155;-66
2022/11/02 09:57:33;;;;;;;8.43;7.63;;;22.60;99.90;;;;;;6209398;28;89156;-67
2022/11/02 10:00:40;;;;;;;8.35;7.55;;;22.50;99.90;;;;;;6226851;28;88111;-66
2022/11/02 10:03:57;;;;;;;8.70;7.90;;;22.50;99.90;;;;;;6230817;28;88627;-66
2022/11/02 10:07:06;;;;;;;8.40;7.60;;;22.60;99.90;;;;;;6217556;28;89556;-67
2022/11/02 10:10:16;;;;;;;8.23;7.43;;;22.60;99.90;;;;;;6228918;28;87959;-66
2022/11/02 10:13:28;;;;;;;8.75;7.72;;;22.60;99.90;;;;;;6230332;28;89231;-67
2022/11/02 10:16:35;;;;;;;8.60;7.70;;;22.60;99.90;;;;;;6220099;28;89219;-66
2022/11/02 10:19:41;;;;;;;7.85;7.07;;;22.60;99.90;;;;;;6232778;28;89194;-67
2022/11/02 10:22:45;;;;;;;8.55;7.70;;;22.60;99.90;;;;;;6210740;28;89569;-67
2022/11/02 10:25:49;;;;;;;7.70;7.00;;;22.60;99.90;;;;;;6234350;28;89213;-66
2022/11/02 10:28:58;;;;;;;8.10;7.30;;;22.60;99.90;;;;;;6210120;28;88245;-66
2022/11/02 10:32:02;;;;;;;7.20;6.57;;;22.60;99.90;;;;;;6209893;28;90701;-67
2022/11/02 10:35:11;;;;;;;7.43;6.72;;;22.60;99.90;;;;;;6232948;28;88653;-66
2022/11/02 10:38:27;;;;;;;7.25;6.65;;;22.60;99.90;;;;;;6209614;28;89296;-67
2022/11/02 10:41:53;;;;;;;7.55;6.85;;;22.60;99.90;;;;;;6222265;28;89209;-67
2022/11/02 10:45:14;;;;;;;7.75;6.85;;;22.60;99.90;;;;;;6233025;28;90039;-67
2022/11/02 10:48:28;;;;;;;7.65;6.85;;;22.60;99.90;;;;;;6223458;28;88104;-67
2022/11/02 10:51:30;;;;;;;7.22;6.53;;;22.70;99.90;;;;;;6234482;28;89052;-67
2022/11/02 10:54:33;;;;;;;7.78;6.97;;;22.70;99.90;;;;;;6223317;28;89221;-67
2022/11/02 10:57:39;;;;;;;7.32;6.63;;;22.60;99.90;;;;;;6232456;28;88694;-67
2022/11/02 11:00:43;;;;;;;7.55;6.57;;;22.70;99.90;;;;;;6232801;28;89222;-67
2022/11/02 11:03:56;;;;;;;7.28;6.60;;;22.60;99.90;;;;;;6213671;28;89122;-67
2022/11/02 11:07:05;;;;;;;6.88;6.25;;;22.70;99.90;;;;;;6209429;28;88339;-67
2022/11/02 11:10:15;;;;;;;6.65;6.05;;;22.70;99.90;;;;;;6215802;28;89139;-67
2022/11/02 11:13:23;;;;;;;7.07;6.38;;;22.70;99.90;;;;;;6226705;28;89330;-67
2022/11/02 11:16:38;;;;;;;6.72;6.00;;;22.70;99.90;;;;;;6231400;28;90225;-66
2022/11/02 11:19:47;;;;;;;7.13;6.40;;;22.70;99.90;;;;;;6221762;28;89075;-67
2022/11/02 11:23:08;;;;;;;7.05;6.35;;;22.70;99.90;;;;;;6222533;28;90136;-67
2022/11/02 11:26:27;;;;;;;6.90;6.20;;;22.70;99.90;;;;;;6230020;28;89176;-67
2022/11/02 11:29:33;;;;;;;6.50;5.90;;;22.60;99.90;;;;;;6208516;28;89216;-66
2022/11/02 11:32:35;;;;;;;6.00;5.47;;;22.70;99.90;;;;;;6224805;28;89215;-66
2022/11/02 11:35:39;;;;;;;8.70;6.88;;;22.70;99.90;;;;;;6216748;28;89207;-67
2022/11/02 11:38:47;;;;;;;6.47;5.88;;;22.70;99.90;;;;;;6222989;28;88811;-66
2022/11/02 11:41:49;;;;;;;6.53;5.93;;;22.70;99.90;;;;;;6233361;28;88027;-66
2022/11/02 11:44:58;;;;;;;6.50;5.90;;;22.70;99.90;;;;;;6221524;28;88655;-66
2022/11/02 11:48:06;;;;;;;6.35;5.75;;;22.70;99.90;;;;;;6220859;28;91152;-67
2022/11/02 11:51:29;;;;;;;6.47;5.88;;;22.70;99.90;;;;;;6220780;28;87888;-67
2022/11/02 11:54:32;;;;;;;6.32;5.72;;;22.70;99.90;;;;;;6231736;28;89326;-66
2022/11/02 11:57:35;;;;;;;6.22;5.63;;;22.70;99.90;;;;;;6209901;28;89061;-67
2022/11/02 12:00:38;;;;;;;6.05;5.45;;;22.70;99.90;;;;;;6215204;28;89639;-67
2022/11/02 12:03:54;;;;;;;5.80;5.30;;;22.70;99.90;;;;;;6212708;28;89360;-67
2022/11/02 12:07:20;;;;;;;6.00;5.40;;;22.70;99.90;;;;;;6227504;28;89126;-67
2022/11/02 12:10:32;;;;;;;6.10;5.50;;;22.70;99.90;;;;;;6225183;28;88398;-67
2022/11/02 12:14:00;;;;;;;6.25;5.68;;;22.70;99.90;;;;;;6223301;28;88983;-66
2022/11/02 12:17:24;;;;;;;5.78;5.20;;;22.70;99.90;;;;;;6226639;28;88078;-67
2022/11/02 12:20:45;;;;;;;5.30;4.80;;;22.70;99.90;;;;;;6223719;28;90337;-67
2022/11/02 12:24:04;;;;;;;5.40;4.90;;;22.70;99.90;;;;;;6231483;28;89146;-67
2022/11/02 12:27:19;;;;;;;6.18;5.57;;;22.70;99.90;;;;;;6218272;28;89279;-67
2022/11/02 12:30:23;;;;;;;5.95;5.35;;;22.60;99.90;;;;;;6217934;28;89413;-67
2022/11/02 12:33:38;;;;;;;5.55;5.00;;;22.70;99.90;;;;;;6229614;28;88680;-67
2022/11/02 12:36:56;;;;;;;6.05;5.45;;;22.70;99.90;;;;;;6231463;28;88987;-66
2022/11/02 12:40:14;;;;;;;5.65;5.15;;;22.70;99.90;;;;;;6231399;28;88148;-67
2022/11/02 12:43:31;;;;;;;5.40;4.90;;;22.70;99.90;;;;;;6231876;28;88737;-66
2022/11/02 12:46:40;;;;;;;5.68;5.18;;;22.70;99.90;;;;;;6207649;28;89267;-67
2022/11/02 12:49:50;;;;;;;5.50;5.00;;;22.70;99.90;;;;;;6207080;28;89144;-67
2022/11/02 12:53:04;;;;;;;5.10;4.70;;;22.70;99.90;;;;;;6218936;28;90251;-67
2022/11/02 12:56:12;;;;;;;5.22;4.72;;;22.70;99.90;;;;;;6230656;28;88981;-67
2022/11/02 12:59:19;;;;;;;5.18;4.68;;;22.70;99.90;;;;;;6216380;28;89102;-67
2022/11/02 13:02:26;;;;;;;5.13;4.63;;;22.70;99.90;;;;;;6221756;28;89092;-67
2022/11/02 13:05:37;;;;;;;5.35;4.85;;;22.70;99.90;;;;;;6214808;28;89368;-67
2022/11/02 13:08:44;;;;;;;5.28;4.78;;;22.70;99.90;;;;;;6231330;28;89037;-67
2022/11/02 13:11:50;;;;;;;5.20;4.70;;;22.70;99.90;;;;;;6217889;28;89331;-67
2022/11/02 13:14:55;;;;;;;5.80;5.13;;;22.70;99.90;;;;;;6223377;28;88413;-66
2022/11/02 13:18:00;;;;;;;4.82;4.40;;;22.70;99.90;;;;;;6218815;28;89148;-67
2022/11/02 13:21:05;;;;;;;5.00;4.53;;;22.70;99.90;;;;;;6217423;28;88968;-67
2022/11/02 13:24:13;;;;;;;5.45;4.63;;;22.70;99.90;;;;;;6217559;28;89382;-67
2022/11/02 13:27:26;;;;;;;5.18;4.68;;;22.70;99.90;;;;;;6206977;28;88348;-66
2022/11/02 13:30:31;;;;;;;5.00;4.57;;;22.70;99.90;;;;;;6206174;28;89295;-67
2022/11/02 13:33:40;;;;;;;5.13;4.60;;;22.70;99.90;;;;;;6228016;28;89181;-67
2022/11/02 13:36:45;;;;;;;4.90;4.43;;;22.70;99.90;;;;;;6216832;28;89288;-66
2022/11/02 13:39:50;;;;;;;4.88;4.38;;;22.70;99.90;;;;;;6229936;28;88982;-67
2022/11/02 13:43:21;;;;;;;4.95;4.53;;;22.70;99.90;;;;;;6210133;28;89191;-67
2022/11/02 13:46:33;;;;;;;5.07;4.57;;;22.70;99.90;;;;;;6231584;28;88419;-67
2022/11/02 13:49:37;;;;;;;4.70;4.30;;;22.70;99.90;;;;;;6224060;28;89236;-67
2022/11/02 13:52:44;;;;;;;4.60;4.20;;;22.70;99.90;;;;;;6210764;28;89325;-67
2022/11/02 13:55:53;;;;;;;4.72;4.32;;;22.70;99.90;;;;;;6216859;28;89967;-67
2022/11/02 13:58:59;;;;;;;4.60;4.20;;;22.70;99.90;;;;;;6232865;28;89511;-67
2022/11/02 14:02:03;;;;;;;5.07;4.57;;;22.70;99.90;;;;;;6228800;28;89116;-67
2022/11/02 14:05:07;;;;;;;4.80;4.35;;;22.70;99.90;;;;;;6227158;28;88104;-67
2022/11/02 14:08:20;;;;;;;4.53;4.13;;;22.70;99.90;;;;;;6230777;28;89552;-67
2022/11/02 14:11:47;;;;;;;4.82;4.40;;;22.70;99.90;;;;;;6212992;28;89609;-67
2022/11/02 14:15:37;;;;;;;5.10;4.57;;;22.70;99.90;;;;;;6208153;28;89327;-67
2022/11/02 14:18:39;;;;;;;4.60;4.20;;;22.70;99.90;;;;;;6228372;28;88476;-67
2022/11/02 14:21:44;;;;;;;4.30;3.90;;;22.70;99.90;;;;;;6220375;28;89307;-67
2022/11/02 14:25:14;;;;;;;4.55;4.15;;;22.70;99.90;;;;;;6227447;28;89448;-67
2022/11/02 14:28:32;;;;;;;4.82;4.28;;;22.70;99.90;;;;;;6225163;28;90013;-66
2022/11/02 14:32:00;;;;;;;4.57;4.18;;;22.70;99.90;;;;;;6217041;28;89327;-67
2022/11/02 14:35:16;;;;;;;4.20;3.80;;;22.70;99.90;;;;;;6234442;28;88134;-67
2022/11/02 14:38:40;;;;;;;4.40;4.00;;;22.70;99.90;;;;;;6232500;28;89257;-66
2022/11/02 14:42:15;;;;;;;4.53;4.13;;;22.70;99.90;;;;;;6200711;28;89403;-67
2022/11/02 14:45:36;;;;;;;4.45;4.03;;;22.70;99.90;;;;;;6211143;28;89039;-66
2022/11/02 14:48:48;;;;;;;4.28;3.88;;;22.70;99.90;;;;;;6222028;28;89069;-66
2022/11/02 14:52:02;;;;;;;4.20;3.80;;;22.70;99.90;;;;;;6231219;28;88420;-67
2022/11/02 14:55:08;;;;;;;4.45;4.05;;;22.70;99.90;;;;;;6224074;28;89096;-67
2022/11/02 14:58:19;;;;;;;3.85;3.55;;;22.70;99.90;;;;;;6222015;28;89203;-67
2022/11/02 15:01:21;;;;;;;4.55;3.92;;;22.70;99.90;;;;;;6223489;28;90270;-67
2022/11/02 15:04:25;;;;;;;3.90;3.60;;;22.70;99.90;;;;;;6234328;28;89036;-67
2022/11/02 15:07:34;;;;;;;4.28;3.88;;;22.70;99.90;;;;;;6222549;28;89152;-67
2022/11/02 15:10:42;;;;;;;3.85;3.55;;;22.70;99.90;;;;;;6221451;28;89070;-67
2022/11/02 15:13:48;;;;;;;4.20;3.80;;;22.70;99.90;;;;;;6224058;28;89589;-67
2022/11/02 15:16:51;;;;;;;4.10;3.70;;;22.70;99.90;;;;;;6224819;28;89241;-67
2022/11/02 15:20:23;;;;;;;3.78;3.47;;;22.70;99.90;;;;;;6220599;28;89346;-67
2022/11/02 15:23:29;;;;;;;3.90;3.60;;;22.60;99.90;;;;;;6222332;28;88399;-67
2022/11/02 15:26:40;;;;;;;3.97;3.67;;;22.70;99.90;;;;;;6212899;28;90072;-67
2022/11/02 15:29:44;;;;;;;4.30;3.90;;;22.70;99.90;;;;;;6218325;28;89519;-66
2022/11/02 15:32:51;;;;;;;3.67;3.38;;;22.60;99.90;;;;;;6216179;28;89951;-67
2022/11/02 15:35:55;;;;;;;4.30;3.90;;;22.70;99.90;;;;;;6224435;28;89369;-67
2022/11/02 15:38:57;;;;;;;4.28;3.70;;;22.70;99.90;;;;;;6233137;28;89107;-67
2022/11/02 15:42:07;;;;;;;3.95;3.58;;;22.70;99.90;;;;;;6221368;28;89645;-67
2022/11/02 15:45:27;;;;;;;3.75;3.45;;;22.60;99.90;;;;;;6232785;28;89180;-67
2022/11/02 15:48:41;;;;;;;4.00;3.60;;;22.60;99.90;;;;;;6210953;28;89123;-67
2022/11/02 15:51:52;;;;;;;4.80;3.80;;;22.60;99.90;;;;;;6221553;28;89280;-67
2022/11/02 15:55:07;;;;;;;3.70;3.40;;;22.70;99.90;;;;;;6223042;28;88386;-67
2022/11/02 15:58:21;;;;;;;4.22;3.55;;;22.60;99.90;;;;;;6219398;28;89184;-67
2022/11/02 16:01:26;;;;;;;4.38;3.70;;;22.60;99.90;;;;;;6220172;28;89201;-67
2022/11/02 16:04:28;;;;;;;3.60;3.30;;;22.70;99.90;;;;;;6219715;28;90120;-67
2022/11/02 16:07:30;;;;;;;3.80;3.50;;;22.70;99.90;;;;;;6218979;28;88023;-67
2022/11/02 16:10:34;;;;;;;3.60;3.30;;;22.60;99.90;;;;;;6218911;28;89101;-67
2022/11/02 16:13:37;;;;;;;3.47;3.17;;;22.70;99.90;;;;;;6231849;28;89129;-67
2022/11/02 16:16:48;;;;;;;4.85;3.80;;;22.70;99.90;;;;;;6231485;28;88980;-67